sensor_id;sensor_type;location;lat;lon;timestamp;temperature;humidity
41922;DHT22;27609;51.002;5.354;2023-04-03T00:02:17;3.00;99.90
41922;DHT22;27609;51.002;5.354;2023-04-03T00:04:43;2.90;99.90
41922;DHT22;27609;51.002;5.354;2023-04-03T00:07:09;2.90;99.90
41922;DHT22;27609;51.002;5.354;2023-04-03T00:09:34;2.90;99.90
41922;DHT22;27609;51.002;5.354;2023-04-03T00:12:00;2.90;99.90
41922;DHT22;27609;51.002;5.354;2023-04-03T00:14:26;2.80;99.90
41922;DHT22;27609;51.002;5.354;2023-04-03T00:16:53;2.80;99.90
41922;DHT22;27609;51.002;5.354;2023-04-03T00:19:18;2.80;99.90
41922;DHT22;27609;51.002;5.354;2023-04-03T00:21:44;2.80;99.90
41922;DHT22;27609;51.002;5.354;2023-04-03T00:24:11;2.80;99.90
41922;DHT22;27609;51.002;5.354;2023-04-03T00:26:36;2.80;99.90
41922;DHT22;27609;51.002;5.354;2023-04-03T00:29:02;2.70;99.90
41922;DHT22;27609;51.002;5.354;2023-04-03T00:31:28;2.70;99.90
41922;DHT22;27609;51.002;5.354;2023-04-03T00:33:54;2.60;99.90
41922;DHT22;27609;51.002;5.354;2023-04-03T00:36:19;2.70;99.90
41922;DHT22;27609;51.002;5.354;2023-04-03T00:38:47;2.70;99.90
41922;DHT22;27609;51.002;5.354;2023-04-03T00:41:12;2.70;99.90
41922;DHT22;27609;51.002;5.354;2023-04-03T00:43:38;2.60;99.90
41922;DHT22;27609;51.002;5.354;2023-04-03T00:46:04;2.60;99.90
41922;DHT22;27609;51.002;5.354;2023-04-03T00:48:38;2.60;99.90
41922;DHT22;27609;51.002;5.354;2023-04-03T00:51:07;2.90;99.90
41922;DHT22;27609;51.002;5.354;2023-04-03T00:53:43;2.60;99.90
41922;DHT22;27609;51.002;5.354;2023-04-03T00:56:12;2.60;99.90
41922;DHT22;27609;51.002;5.354;2023-04-03T00:59:01;2.60;99.90
41922;DHT22;27609;51.002;5.354;2023-04-03T01:01:29;2.40;99.90
41922;DHT22;27609;51.002;5.354;2023-04-03T01:03:56;2.50;99.90
41922;DHT22;27609;51.002;5.354;2023-04-03T01:06:28;2.40;99.90
41922;DHT22;27609;51.002;5.354;2023-04-03T01:08:56;2.50;99.90
41922;DHT22;27609;51.002;5.354;2023-04-03T01:11:22;2.50;99.90
41922;DHT22;27609;51.002;5.354;2023-04-03T01:13:48;2.40;99.90
41922;DHT22;27609;51.002;5.354;2023-04-03T01:16:14;2.40;99.90
41922;DHT22;27609;51.002;5.354;2023-04-03T01:18:41;2.40;99.90
41922;DHT22;27609;51.002;5.354;2023-04-03T01:23:53;2.40;99.90
41922;DHT22;27609;51.002;5.354;2023-04-03T01:26:20;2.40;99.90
41922;DHT22;27609;51.002;5.354;2023-04-03T01:28:46;2.40;99.90
41922;DHT22;27609;51.002;5.354;2023-04-03T01:31:20;2.40;99.90
41922;DHT22;27609;51.002;5.354;2023-04-03T01:33:48;2.40;99.90
41922;DHT22;27609;51.002;5.354;2023-04-03T01:36:17;2.40;99.90
41922;DHT22;27609;51.002;5.354;2023-04-03T01:38:43;2.30;99.90
41922;DHT22;27609;51.002;5.354;2023-04-03T01:41:09;2.40;99.90
41922;DHT22;27609;51.002;5.354;2023-04-03T01:43:35;2.20;99.90
41922;DHT22;27609;51.002;5.354;2023-04-03T01:46:01;2.20;99.90
41922;DHT22;27609;51.002;5.354;2023-04-03T01:48:26;2.10;99.90
41922;DHT22;27609;51.002;5.354;2023-04-03T01:50:52;2.10;99.90
41922;DHT22;27609;51.002;5.354;2023-04-03T01:53:18;2.10;99.90
41922;DHT22;27609;51.002;5.354;2023-04-03T01:55:44;2.10;99.90
41922;DHT22;27609;51.002;5.354;2023-04-03T01:58:10;2.00;99.90
41922;DHT22;27609;51.002;5.354;2023-04-03T02:00:36;2.10;99.90
41922;DHT22;27609;51.002;5.354;2023-04-03T02:03:02;2.10;99.90
41922;DHT22;27609;51.002;5.354;2023-04-03T02:05:28;2.20;99.90
41922;DHT22;27609;51.002;5.354;2023-04-03T02:07:54;2.10;99.90
41922;DHT22;27609;51.002;5.354;2023-04-03T02:10:20;2.10;99.90
41922;DHT22;27609;51.002;5.354;2023-04-03T02:12:45;2.00;99.90
41922;DHT22;27609;51.002;5.354;2023-04-03T02:15:11;2.10;99.90
41922;DHT22;27609;51.002;5.354;2023-04-03T02:17:37;2.00;99.90
41922;DHT22;27609;51.002;5.354;2023-04-03T02:20:03;2.00;99.90
41922;DHT22;27609;51.002;5.354;2023-04-03T02:22:29;2.00;99.90
41922;DHT22;27609;51.002;5.354;2023-04-03T02:24:55;2.00;99.90
41922;DHT22;27609;51.002;5.354;2023-04-03T02:27:21;2.00;99.90
41922;DHT22;27609;51.002;5.354;2023-04-03T02:29:46;2.00;99.90
41922;DHT22;27609;51.002;5.354;2023-04-03T02:32:12;2.00;99.90
41922;DHT22;27609;51.002;5.354;2023-04-03T02:34:38;2.00;99.90
41922;DHT22;27609;51.002;5.354;2023-04-03T02:37:03;2.00;99.90
41922;DHT22;27609;51.002;5.354;2023-04-03T02:39:29;2.00;99.90
41922;DHT22;27609;51.002;5.354;2023-04-03T02:41:55;2.10;99.90
41922;DHT22;27609;51.002;5.354;2023-04-03T02:44:21;1.90;99.90
41922;DHT22;27609;51.002;5.354;2023-04-03T02:46:49;1.90;99.90
41922;DHT22;27609;51.002;5.354;2023-04-03T02:49:14;2.80;99.90
41922;DHT22;27609;51.002;5.354;2023-04-03T02:51:41;1.90;99.90
41922;DHT22;27609;51.002;5.354;2023-04-03T02:54:07;1.80;99.90
41922;DHT22;27609;51.002;5.354;2023-04-03T02:56:33;1.80;99.90
41922;DHT22;27609;51.002;5.354;2023-04-03T02:58:59;1.80;99.90
41922;DHT22;27609;51.002;5.354;2023-04-03T03:01:25;1.90;99.90
41922;DHT22;27609;51.002;5.354;2023-04-03T03:03:53;1.80;99.90
41922;DHT22;27609;51.002;5.354;2023-04-03T03:06:19;1.90;99.90
41922;DHT22;27609;51.002;5.354;2023-04-03T03:08:45;1.80;99.90
41922;DHT22;27609;51.002;5.354;2023-04-03T03:11:11;1.80;99.90
41922;DHT22;27609;51.002;5.354;2023-04-03T03:13:37;1.80;99.90
41922;DHT22;27609;51.002;5.354;2023-04-03T03:16:03;1.80;99.90
41922;DHT22;27609;51.002;5.354;2023-04-03T03:18:29;1.80;99.90
41922;DHT22;27609;51.002;5.354;2023-04-03T03:20:57;2.10;99.90
41922;DHT22;27609;51.002;5.354;2023-04-03T03:23:25;1.70;99.90
41922;DHT22;27609;51.002;5.354;2023-04-03T03:26:03;1.70;99.90
41922;DHT22;27609;51.002;5.354;2023-04-03T03:28:30;1.70;99.90
41922;DHT22;27609;51.002;5.354;2023-04-03T03:30:56;1.70;99.90
41922;DHT22;27609;51.002;5.354;2023-04-03T03:33:23;1.60;99.90
41922;DHT22;27609;51.002;5.354;2023-04-03T03:35:49;1.60;99.90
41922;DHT22;27609;51.002;5.354;2023-04-03T03:38:15;1.60;99.90
41922;DHT22;27609;51.002;5.354;2023-04-03T03:40:41;1.60;99.90
41922;DHT22;27609;51.002;5.354;2023-04-03T03:43:06;1.60;99.90
41922;DHT22;27609;51.002;5.354;2023-04-03T03:45:32;1.60;99.90
41922;DHT22;27609;51.002;5.354;2023-04-03T03:47:58;1.70;99.90
41922;DHT22;27609;51.002;5.354;2023-04-03T03:50:24;1.70;99.90
41922;DHT22;27609;51.002;5.354;2023-04-03T03:52:49;1.70;99.90
41922;DHT22;27609;51.002;5.354;2023-04-03T03:55:15;1.60;99.90
41922;DHT22;27609;51.002;5.354;2023-04-03T03:57:41;1.60;99.90
41922;DHT22;27609;51.002;5.354;2023-04-03T04:00:07;1.60;99.90
41922;DHT22;27609;51.002;5.354;2023-04-03T04:02:34;1.60;99.90
41922;DHT22;27609;51.002;5.354;2023-04-03T04:04:59;1.60;99.90
41922;DHT22;27609;51.002;5.354;2023-04-03T04:07:25;1.70;99.90
41922;DHT22;27609;51.002;5.354;2023-04-03T04:09:53;1.70;99.90
41922;DHT22;27609;51.002;5.354;2023-04-03T04:12:19;1.60;99.90
41922;DHT22;27609;51.002;5.354;2023-04-03T04:14:45;1.00;99.90
41922;DHT22;27609;51.002;5.354;2023-04-03T04:17:13;1.60;99.90
41922;DHT22;27609;51.002;5.354;2023-04-03T04:19:38;1.70;99.90
41922;DHT22;27609;51.002;5.354;2023-04-03T04:22:04;1.90;99.90
41922;DHT22;27609;51.002;5.354;2023-04-03T04:24:30;1.90;99.90
41922;DHT22;27609;51.002;5.354;2023-04-03T04:26:56;1.70;99.90
41922;DHT22;27609;51.002;5.354;2023-04-03T04:29:21;1.60;99.90
41922;DHT22;27609;51.002;5.354;2023-04-03T04:31:47;1.60;99.90
41922;DHT22;27609;51.002;5.354;2023-04-03T04:34:14;1.60;99.90
41922;DHT22;27609;51.002;5.354;2023-04-03T04:36:39;1.60;99.90
41922;DHT22;27609;51.002;5.354;2023-04-03T04:39:05;1.60;99.90
41922;DHT22;27609;51.002;5.354;2023-04-03T04:41:31;1.50;99.90
41922;DHT22;27609;51.002;5.354;2023-04-03T04:43:57;1.50;99.90
41922;DHT22;27609;51.002;5.354;2023-04-03T04:46:23;1.50;99.90
41922;DHT22;27609;51.002;5.354;2023-04-03T04:48:49;1.50;99.90
41922;DHT22;27609;51.002;5.354;2023-04-03T04:51:15;1.40;99.90
41922;DHT22;27609;51.002;5.354;2023-04-03T04:53:41;1.50;99.90
41922;DHT22;27609;51.002;5.354;2023-04-03T04:56:07;1.40;99.90
41922;DHT22;27609;51.002;5.354;2023-04-03T04:58:33;1.30;99.90
41922;DHT22;27609;51.002;5.354;2023-04-03T05:01:04;1.40;99.90
41922;DHT22;27609;51.002;5.354;2023-04-03T05:03:30;1.40;99.90
41922;DHT22;27609;51.002;5.354;2023-04-03T05:05:56;1.30;99.90
41922;DHT22;27609;51.002;5.354;2023-04-03T05:08:22;1.30;99.90
41922;DHT22;27609;51.002;5.354;2023-04-03T05:10:48;1.40;99.90
41922;DHT22;27609;51.002;5.354;2023-04-03T05:13:14;1.40;99.90
41922;DHT22;27609;51.002;5.354;2023-04-03T05:15:40;1.40;99.90
41922;DHT22;27609;51.002;5.354;2023-04-03T05:18:06;1.50;99.90
41922;DHT22;27609;51.002;5.354;2023-04-03T05:20:32;1.50;99.90
41922;DHT22;27609;51.002;5.354;2023-04-03T05:22:58;1.60;99.90
41922;DHT22;27609;51.002;5.354;2023-04-03T05:25:24;1.50;99.90
41922;DHT22;27609;51.002;5.354;2023-04-03T05:27:50;1.60;99.90
41922;DHT22;27609;51.002;5.354;2023-04-03T05:30:16;1.50;99.90
41922;DHT22;27609;51.002;5.354;2023-04-03T05:32:42;1.60;99.90
41922;DHT22;27609;51.002;5.354;2023-04-03T05:35:09;1.50;99.90
41922;DHT22;27609;51.002;5.354;2023-04-03T05:37:35;1.50;99.90
41922;DHT22;27609;51.002;5.354;2023-04-03T05:40:01;1.50;99.90
41922;DHT22;27609;51.002;5.354;2023-04-03T05:42:27;1.60;99.90
41922;DHT22;27609;51.002;5.354;2023-04-03T05:44:52;1.60;99.90
41922;DHT22;27609;51.002;5.354;2023-04-03T05:47:19;1.60;99.90
41922;DHT22;27609;51.002;5.354;2023-04-03T05:49:45;1.70;99.90
41922;DHT22;27609;51.002;5.354;2023-04-03T05:54:47;1.90;99.90
41922;DHT22;27609;51.002;5.354;2023-04-03T05:57:14;2.00;99.90
41922;DHT22;27609;51.002;5.354;2023-04-03T05:59:42;2.10;99.90
41922;DHT22;27609;51.002;5.354;2023-04-03T06:02:12;2.10;99.90
41922;DHT22;27609;51.002;5.354;2023-04-03T06:04:38;2.10;99.90
41922;DHT22;27609;51.002;5.354;2023-04-03T06:07:03;1.90;99.90
41922;DHT22;27609;51.002;5.354;2023-04-03T06:09:29;2.00;99.90
41922;DHT22;27609;51.002;5.354;2023-04-03T06:11:56;2.20;99.90
41922;DHT22;27609;51.002;5.354;2023-04-03T06:14:26;2.50;99.90
41922;DHT22;27609;51.002;5.354;2023-04-03T06:16:52;2.60;99.90
41922;DHT22;27609;51.002;5.354;2023-04-03T06:19:19;2.70;99.90
41922;DHT22;27609;51.002;5.354;2023-04-03T06:21:45;2.90;99.90
41922;DHT22;27609;51.002;5.354;2023-04-03T06:24:14;3.10;99.90
41922;DHT22;27609;51.002;5.354;2023-04-03T06:26:40;3.30;99.90
41922;DHT22;27609;51.002;5.354;2023-04-03T06:29:06;3.50;99.90
41922;DHT22;27609;51.002;5.354;2023-04-03T06:31:32;3.70;99.90
41922;DHT22;27609;51.002;5.354;2023-04-03T06:33:58;4.30;99.90
41922;DHT22;27609;51.002;5.354;2023-04-03T06:36:24;4.70;99.90
41922;DHT22;27609;51.002;5.354;2023-04-03T06:38:50;4.80;99.90
41922;DHT22;27609;51.002;5.354;2023-04-03T06:41:16;4.90;99.90
41922;DHT22;27609;51.002;5.354;2023-04-03T06:43:43;4.60;99.90
41922;DHT22;27609;51.002;5.354;2023-04-03T06:46:27;5.10;99.90
41922;DHT22;27609;51.002;5.354;2023-04-03T06:48:53;5.50;99.90
41922;DHT22;27609;51.002;5.354;2023-04-03T06:51:23;6.30;99.90
41922;DHT22;27609;51.002;5.354;2023-04-03T06:53:51;6.90;99.90
41922;DHT22;27609;51.002;5.354;2023-04-03T06:56:17;7.80;99.90
41922;DHT22;27609;51.002;5.354;2023-04-03T06:58:43;8.50;99.90
41922;DHT22;27609;51.002;5.354;2023-04-03T07:01:11;9.10;99.90
41922;DHT22;27609;51.002;5.354;2023-04-03T07:03:38;9.00;99.90
41922;DHT22;27609;51.002;5.354;2023-04-03T07:06:04;9.60;99.90
41922;DHT22;27609;51.002;5.354;2023-04-03T07:08:31;10.00;99.90
41922;DHT22;27609;51.002;5.354;2023-04-03T07:10:57;9.40;99.90
41922;DHT22;27609;51.002;5.354;2023-04-03T07:13:23;10.20;99.90
41922;DHT22;27609;51.002;5.354;2023-04-03T07:15:49;10.70;99.90
41922;DHT22;27609;51.002;5.354;2023-04-03T07:18:15;11.50;99.90
41922;DHT22;27609;51.002;5.354;2023-04-03T07:20:42;11.40;99.90
41922;DHT22;27609;51.002;5.354;2023-04-03T07:23:08;12.40;99.90
41922;DHT22;27609;51.002;5.354;2023-04-03T07:25:34;12.10;99.90
41922;DHT22;27609;51.002;5.354;2023-04-03T07:28:00;12.10;99.90
41922;DHT22;27609;51.002;5.354;2023-04-03T07:30:26;12.40;99.90
41922;DHT22;27609;51.002;5.354;2023-04-03T07:32:52;13.10;99.90
41922;DHT22;27609;51.002;5.354;2023-04-03T07:35:18;13.70;99.90
41922;DHT22;27609;51.002;5.354;2023-04-03T07:37:44;12.30;99.90
41922;DHT22;27609;51.002;5.354;2023-04-03T07:40:10;12.00;99.90
41922;DHT22;27609;51.002;5.354;2023-04-03T07:42:36;13.60;99.90
41922;DHT22;27609;51.002;5.354;2023-04-03T07:45:03;13.10;99.90
41922;DHT22;27609;51.002;5.354;2023-04-03T07:47:30;14.00;99.90
41922;DHT22;27609;51.002;5.354;2023-04-03T07:49:56;14.90;99.90
41922;DHT22;27609;51.002;5.354;2023-04-03T07:52:23;13.40;99.90
41922;DHT22;27609;51.002;5.354;2023-04-03T07:54:48;11.80;99.90
41922;DHT22;27609;51.002;5.354;2023-04-03T07:57:14;13.00;99.90
41922;DHT22;27609;51.002;5.354;2023-04-03T07:59:40;12.70;99.90
41922;DHT22;27609;51.002;5.354;2023-04-03T08:02:11;12.80;99.90
41922;DHT22;27609;51.002;5.354;2023-04-03T08:04:38;11.60;99.90
41922;DHT22;27609;51.002;5.354;2023-04-03T08:07:04;12.70;99.90
41922;DHT22;27609;51.002;5.354;2023-04-03T08:09:30;13.20;99.90
41922;DHT22;27609;51.002;5.354;2023-04-03T08:11:57;14.20;99.90
41922;DHT22;27609;51.002;5.354;2023-04-03T08:14:23;14.00;99.90
41922;DHT22;27609;51.002;5.354;2023-04-03T08:16:48;13.40;99.90
41922;DHT22;27609;51.002;5.354;2023-04-03T08:19:16;14.30;99.90
41922;DHT22;27609;51.002;5.354;2023-04-03T08:21:43;16.00;99.90
41922;DHT22;27609;51.002;5.354;2023-04-03T08:24:09;16.70;98.80
41922;DHT22;27609;51.002;5.354;2023-04-03T08:26:35;15.50;99.90
41922;DHT22;27609;51.002;5.354;2023-04-03T08:29:01;16.70;99.60
41922;DHT22;27609;51.002;5.354;2023-04-03T08:31:27;17.40;97.00
41922;DHT22;27609;51.002;5.354;2023-04-03T08:33:53;16.80;99.50
41922;DHT22;27609;51.002;5.354;2023-04-03T08:36:25;16.20;98.20
41922;DHT22;27609;51.002;5.354;2023-04-03T08:38:52;15.50;99.50
41922;DHT22;27609;51.002;5.354;2023-04-03T08:41:37;16.40;97.70
41922;DHT22;27609;51.002;5.354;2023-04-03T08:49:42;19.70;94.60
41922;DHT22;27609;51.002;5.354;2023-04-03T08:52:44;21.10;92.10
41922;DHT22;27609;51.002;5.354;2023-04-03T08:55:25;20.00;89.70
41922;DHT22;27609;51.002;5.354;2023-04-03T08:58:03;18.50;91.90
41922;DHT22;27609;51.002;5.354;2023-04-03T09:00:41;16.00;93.30
41922;DHT22;27609;51.002;5.354;2023-04-03T09:03:13;14.80;96.10
41922;DHT22;27609;51.002;5.354;2023-04-03T09:05:56;14.20;97.90
41922;DHT22;27609;51.002;5.354;2023-04-03T09:08:42;14.40;99.30
41922;DHT22;27609;51.002;5.354;2023-04-03T09:11:40;16.80;94.50
41922;DHT22;27609;51.002;5.354;2023-04-03T09:14:33;15.90;94.40
41922;DHT22;27609;51.002;5.354;2023-04-03T09:17:12;16.10;94.10
41922;DHT22;27609;51.002;5.354;2023-04-03T09:22:27;16.60;96.60
41922;DHT22;27609;51.002;5.354;2023-04-03T09:25:01;18.20;93.70
41922;DHT22;27609;51.002;5.354;2023-04-03T09:27:27;19.40;91.80
41922;DHT22;27609;51.002;5.354;2023-04-03T09:29:55;19.10;90.90
41922;DHT22;27609;51.002;5.354;2023-04-03T09:32:30;18.70;91.50
41922;DHT22;27609;51.002;5.354;2023-04-03T09:35:13;18.10;92.10
41922;DHT22;27609;51.002;5.354;2023-04-03T09:37:43;19.10;92.90
41922;DHT22;27609;51.002;5.354;2023-04-03T09:40:32;21.40;90.50
41922;DHT22;27609;51.002;5.354;2023-04-03T09:43:21;22.80;83.20
41922;DHT22;27609;51.002;5.354;2023-04-03T09:45:49;21.80;86.00
41922;DHT22;27609;51.002;5.354;2023-04-03T09:48:16;22.70;81.80
41922;DHT22;27609;51.002;5.354;2023-04-03T09:51:00;21.90;82.40
41922;DHT22;27609;51.002;5.354;2023-04-03T09:53:40;20.50;81.10
41922;DHT22;27609;51.002;5.354;2023-04-03T09:58:49;20.80;79.80
41922;DHT22;27609;51.002;5.354;2023-04-03T10:01:36;20.70;78.50
41922;DHT22;27609;51.002;5.354;2023-04-03T10:06:37;20.60;73.60
41922;DHT22;27609;51.002;5.354;2023-04-03T10:12:06;20.80;69.60
41922;DHT22;27609;51.002;5.354;2023-04-03T10:14:35;20.90;76.40
41922;DHT22;27609;51.002;5.354;2023-04-03T10:17:26;21.70;69.50
41922;DHT22;27609;51.002;5.354;2023-04-03T10:23:31;20.70;66.20
41922;DHT22;27609;51.002;5.354;2023-04-03T10:25:40;18.80;68.80
41922;DHT22;27609;51.002;5.354;2023-04-03T10:30:55;15.90;73.70
41922;DHT22;27609;51.002;5.354;2023-04-03T10:33:30;16.50;68.30
41922;DHT22;27609;51.002;5.354;2023-04-03T10:39:08;19.20;66.90
41922;DHT22;27609;51.002;5.354;2023-04-03T10:42:06;20.20;66.70
41922;DHT22;27609;51.002;5.354;2023-04-03T10:50:38;19.20;61.20
41922;DHT22;27609;51.002;5.354;2023-04-03T10:56:35;20.90;58.40
41922;DHT22;27609;51.002;5.354;2023-04-03T10:59:25;20.70;63.90
41922;DHT22;27609;51.002;5.354;2023-04-03T11:04:40;24.20;53.80
41922;DHT22;27609;51.002;5.354;2023-04-03T11:07:22;23.40;53.60
41922;DHT22;27609;51.002;5.354;2023-04-03T11:09:52;23.30;53.40
41922;DHT22;27609;51.002;5.354;2023-04-03T11:12:33;20.70;54.20
41922;DHT22;27609;51.002;5.354;2023-04-03T11:15:02;20.20;54.10
41922;DHT22;27609;51.002;5.354;2023-04-03T11:18:06;22.20;54.80
41922;DHT22;27609;51.002;5.354;2023-04-03T11:20:31;22.80;51.80
41922;DHT22;27609;51.002;5.354;2023-04-03T11:23:04;21.70;52.40
41922;DHT22;27609;51.002;5.354;2023-04-03T11:25:33;21.50;55.00
41922;DHT22;27609;51.002;5.354;2023-04-03T11:28:06;19.20;54.40
41922;DHT22;27609;51.002;5.354;2023-04-03T11:30:42;16.30;56.80
41922;DHT22;27609;51.002;5.354;2023-04-03T11:36:02;20.10;54.70
41922;DHT22;27609;51.002;5.354;2023-04-03T11:38:35;23.40;55.90
41922;DHT22;27609;51.002;5.354;2023-04-03T11:41:06;20.20;52.90
41922;DHT22;27609;51.002;5.354;2023-04-03T11:43:33;18.50;55.60
41922;DHT22;27609;51.002;5.354;2023-04-03T11:46:01;16.40;55.90
41922;DHT22;27609;51.002;5.354;2023-04-03T11:50:56;19.20;55.50
41922;DHT22;27609;51.002;5.354;2023-04-03T11:53:36;19.70;56.00
41922;DHT22;27609;51.002;5.354;2023-04-03T12:01:48;19.90;54.00
41922;DHT22;27609;51.002;5.354;2023-04-03T12:04:16;20.10;55.00
41922;DHT22;27609;51.002;5.354;2023-04-03T12:06:49;20.30;54.20
41922;DHT22;27609;51.002;5.354;2023-04-03T12:10:13;18.40;56.20
41922;DHT22;27609;51.002;5.354;2023-04-03T12:12:38;20.00;57.40
41922;DHT22;27609;51.002;5.354;2023-04-03T12:15:38;19.10;55.70
41922;DHT22;27609;51.002;5.354;2023-04-03T12:21:13;20.30;54.10
41922;DHT22;27609;51.002;5.354;2023-04-03T12:26:30;18.30;58.50
41922;DHT22;27609;51.002;5.354;2023-04-03T12:28:56;18.40;58.30
41922;DHT22;27609;51.002;5.354;2023-04-03T12:31:25;18.70;56.90
41922;DHT22;27609;51.002;5.354;2023-04-03T12:34:26;20.20;55.40
41922;DHT22;27609;51.002;5.354;2023-04-03T12:42:56;19.50;58.10
41922;DHT22;27609;51.002;5.354;2023-04-03T12:45:27;19.90;54.80
41922;DHT22;27609;51.002;5.354;2023-04-03T12:47:54;20.00;56.20
41922;DHT22;27609;51.002;5.354;2023-04-03T12:50:28;18.90;56.00
41922;DHT22;27609;51.002;5.354;2023-04-03T12:53:15;17.30;58.90
41922;DHT22;27609;51.002;5.354;2023-04-03T12:55:42;18.60;61.80
41922;DHT22;27609;51.002;5.354;2023-04-03T12:58:23;20.80;58.50
41922;DHT22;27609;51.002;5.354;2023-04-03T13:01:15;22.80;53.90
41922;DHT22;27609;51.002;5.354;2023-04-03T13:03:48;23.60;54.40
41922;DHT22;27609;51.002;5.354;2023-04-03T13:06:27;23.10;54.80
41922;DHT22;27609;51.002;5.354;2023-04-03T13:08:55;20.60;56.50
41922;DHT22;27609;51.002;5.354;2023-04-03T13:11:27;19.40;56.70
41922;DHT22;27609;51.002;5.354;2023-04-03T13:14:01;18.70;60.70
41922;DHT22;27609;51.002;5.354;2023-04-03T13:16:28;19.20;57.40
41922;DHT22;27609;51.002;5.354;2023-04-03T13:18:55;20.00;57.40
41922;DHT22;27609;51.002;5.354;2023-04-03T13:21:32;20.80;56.60
41922;DHT22;27609;51.002;5.354;2023-04-03T13:24:01;21.30;56.50
41922;DHT22;27609;51.002;5.354;2023-04-03T13:26:30;22.20;56.00
41922;DHT22;27609;51.002;5.354;2023-04-03T13:29:02;19.60;59.30
41922;DHT22;27609;51.002;5.354;2023-04-03T13:31:32;18.50;57.70
41922;DHT22;27609;51.002;5.354;2023-04-03T13:36:39;18.60;58.30
41922;DHT22;27609;51.002;5.354;2023-04-03T13:41:45;19.20;59.90
41922;DHT22;27609;51.002;5.354;2023-04-03T13:46:50;20.50;58.80
41922;DHT22;27609;51.002;5.354;2023-04-03T13:49:30;20.60;57.10
41922;DHT22;27609;51.002;5.354;2023-04-03T13:51:57;21.00;55.60
41922;DHT22;27609;51.002;5.354;2023-04-03T13:56:56;20.50;59.30
41922;DHT22;27609;51.002;5.354;2023-04-03T13:59:24;20.20;56.40
41922;DHT22;27609;51.002;5.354;2023-04-03T14:01:55;19.30;57.40
41922;DHT22;27609;51.002;5.354;2023-04-03T14:04:44;19.00;59.90
41922;DHT22;27609;51.002;5.354;2023-04-03T14:07:12;18.00;58.80
41922;DHT22;27609;51.002;5.354;2023-04-03T14:09:37;17.50;60.00
41922;DHT22;27609;51.002;5.354;2023-04-03T14:12:20;17.20;61.80
41922;DHT22;27609;51.002;5.354;2023-04-03T14:14:47;16.70;63.30
41922;DHT22;27609;51.002;5.354;2023-04-03T14:17:21;18.30;61.40
41922;DHT22;27609;51.002;5.354;2023-04-03T14:19:50;18.80;61.60
41922;DHT22;27609;51.002;5.354;2023-04-03T14:22:20;19.20;60.80
41922;DHT22;27609;51.002;5.354;2023-04-03T14:24:48;18.00;61.30
41922;DHT22;27609;51.002;5.354;2023-04-03T14:27:25;18.10;61.10
41922;DHT22;27609;51.002;5.354;2023-04-03T14:29:52;18.10;60.00
41922;DHT22;27609;51.002;5.354;2023-04-03T14:32:20;17.80;61.80
41922;DHT22;27609;51.002;5.354;2023-04-03T14:34:47;18.20;61.10
41922;DHT22;27609;51.002;5.354;2023-04-03T14:37:16;18.00;61.70
41922;DHT22;27609;51.002;5.354;2023-04-03T14:39:42;18.70;61.90
41922;DHT22;27609;51.002;5.354;2023-04-03T14:42:14;18.20;60.10
41922;DHT22;27609;51.002;5.354;2023-04-03T14:44:41;17.60;60.60
41922;DHT22;27609;51.002;5.354;2023-04-03T14:47:15;17.30;62.80
41922;DHT22;27609;51.002;5.354;2023-04-03T14:49:42;17.20;60.90
41922;DHT22;27609;51.002;5.354;2023-04-03T14:52:24;17.90;60.10
41922;DHT22;27609;51.002;5.354;2023-04-03T14:54:50;18.00;62.20
41922;DHT22;27609;51.002;5.354;2023-04-03T14:57:17;17.70;62.30
41922;DHT22;27609;51.002;5.354;2023-04-03T14:59:44;17.80;61.10
41922;DHT22;27609;51.002;5.354;2023-04-03T15:04:57;17.20;65.80
41922;DHT22;27609;51.002;5.354;2023-04-03T15:07:24;16.80;63.70
41922;DHT22;27609;51.002;5.354;2023-04-03T15:09:50;16.70;62.90
41922;DHT22;27609;51.002;5.354;2023-04-03T15:12:16;16.70;64.60
41922;DHT22;27609;51.002;5.354;2023-04-03T15:14:42;16.90;64.50
41922;DHT22;27609;51.002;5.354;2023-04-03T15:17:16;16.90;61.60
41922;DHT22;27609;51.002;5.354;2023-04-03T15:19:42;16.00;63.20
41922;DHT22;27609;51.002;5.354;2023-04-03T15:22:14;15.60;66.00
41922;DHT22;27609;51.002;5.354;2023-04-03T15:24:40;15.00;63.50
41922;DHT22;27609;51.002;5.354;2023-04-03T15:27:05;14.70;64.60
41922;DHT22;27609;51.002;5.354;2023-04-03T15:29:31;14.80;66.50
41922;DHT22;27609;51.002;5.354;2023-04-03T15:31:57;14.80;67.80
41922;DHT22;27609;51.002;5.354;2023-04-03T15:34:23;15.00;65.70
41922;DHT22;27609;51.002;5.354;2023-04-03T15:36:49;14.70;66.70
41922;DHT22;27609;51.002;5.354;2023-04-03T15:39:17;14.30;65.70
41922;DHT22;27609;51.002;5.354;2023-04-03T15:41:44;14.10;66.90
41922;DHT22;27609;51.002;5.354;2023-04-03T15:44:10;13.80;66.50
41922;DHT22;27609;51.002;5.354;2023-04-03T15:46:37;13.80;68.70
41922;DHT22;27609;51.002;5.354;2023-04-03T15:49:04;14.00;69.20
41922;DHT22;27609;51.002;5.354;2023-04-03T15:51:31;13.90;68.70
41922;DHT22;27609;51.002;5.354;2023-04-03T15:53:57;13.80;66.50
41922;DHT22;27609;51.002;5.354;2023-04-03T15:56:22;13.70;69.40
41922;DHT22;27609;51.002;5.354;2023-04-03T15:58:48;13.90;67.80
41922;DHT22;27609;51.002;5.354;2023-04-03T16:01:14;13.40;67.50
41922;DHT22;27609;51.002;5.354;2023-04-03T16:03:42;13.20;70.10
41922;DHT22;27609;51.002;5.354;2023-04-03T16:06:12;13.10;70.00
41922;DHT22;27609;51.002;5.354;2023-04-03T16:08:38;12.80;70.10
41922;DHT22;27609;51.002;5.354;2023-04-03T16:11:04;12.90;72.30
41922;DHT22;27609;51.002;5.354;2023-04-03T16:13:30;12.80;69.30
41922;DHT22;27609;51.002;5.354;2023-04-03T16:15:56;12.70;72.20
41922;DHT22;27609;51.002;5.354;2023-04-03T16:18:22;12.60;68.50
41922;DHT22;27609;51.002;5.354;2023-04-03T16:20:48;12.70;72.50
41922;DHT22;27609;51.002;5.354;2023-04-03T16:23:14;12.50;69.40
41922;DHT22;27609;51.002;5.354;2023-04-03T16:25:40;12.20;70.00
41922;DHT22;27609;51.002;5.354;2023-04-03T16:28:05;11.90;70.80
41922;DHT22;27609;51.002;5.354;2023-04-03T16:30:32;11.90;71.60
41922;DHT22;27609;51.002;5.354;2023-04-03T16:32:58;11.80;72.00
41922;DHT22;27609;51.002;5.354;2023-04-03T16:35:24;11.70;74.00
41922;DHT22;27609;51.002;5.354;2023-04-03T16:37:49;11.70;72.60
41922;DHT22;27609;51.002;5.354;2023-04-03T16:40:15;11.50;74.20
41922;DHT22;27609;51.002;5.354;2023-04-03T16:42:41;11.20;73.60
41922;DHT22;27609;51.002;5.354;2023-04-03T16:45:07;11.20;72.90
41922;DHT22;27609;51.002;5.354;2023-04-03T16:47:33;11.20;74.50
41922;DHT22;27609;51.002;5.354;2023-04-03T16:49:59;11.10;72.80
41922;DHT22;27609;51.002;5.354;2023-04-03T16:52:25;11.10;73.70
41922;DHT22;27609;51.002;5.354;2023-04-03T16:54:51;11.00;74.00
41922;DHT22;27609;51.002;5.354;2023-04-03T16:57:21;10.90;76.30
41922;DHT22;27609;51.002;5.354;2023-04-03T16:59:47;10.80;77.20
41922;DHT22;27609;51.002;5.354;2023-04-03T17:02:14;10.80;76.50
41922;DHT22;27609;51.002;5.354;2023-04-03T17:04:40;10.80;74.70
41922;DHT22;27609;51.002;5.354;2023-04-03T17:07:06;10.70;74.40
41922;DHT22;27609;51.002;5.354;2023-04-03T17:09:33;10.70;76.90